Diretta Meteo Catania-Fontanarossa, Italialunedì 22 luglio ore 17:20

Mappa
Sereno 31 °C Sereno 24 Ore: T.min 19 T.max 32
Ponente Est/Nord-Est Km/h 22.2 Punto di rugiada: 14 °C Umidità: 35% Visibilità: 10 Km
Il sole sorge alle: 05:54 Il sole tramonta alle: 20:17
22 Luglio 2019 17:20 tempo osservato: Sereno Sereno 31 35 1017 vento: Nord E/NE 22.2
22 Luglio 2019 16:50 tempo osservato: Sereno Sereno 32 33 1018 vento: Nord E/NE 22.2
22 Luglio 2019 16:20 tempo osservato: Sereno Sereno 32 33 1018 vento: Nord E/NE 24
22 Luglio 2019 15:50 tempo osservato: Sereno Sereno 32 35 1018 vento: Nord E/NE 22.2
22 Luglio 2019 15:20 tempo osservato: Sereno Sereno 31 40 1018 vento: Nord E/NE 24
22 Luglio 2019 14:50 tempo osservato: Sereno Sereno 31 43 1018 vento: Nord E/NE 22.2
22 Luglio 2019 14:20 tempo osservato: Sereno Sereno 31 43 1019 vento: Nord E/NE 24
22 Luglio 2019 13:50 tempo osservato: Sereno Sereno 31 45 1019 vento: Nord E/NE 24
22 Luglio 2019 13:20 tempo osservato: Sereno Sereno 31 48 1019 vento: Nord E/NE 24
22 Luglio 2019 12:50 tempo osservato: Sereno Sereno 31 45 1019 vento: Nord E 24
22 Luglio 2019 12:20 tempo osservato: Sereno Sereno 30 55 1019 vento: Nord E 25.9
22 Luglio 2019 11:50 tempo osservato: Sereno Sereno 30 51 1019 vento: Nord E 24
22 Luglio 2019 11:20 tempo osservato: Sereno Sereno 30 55 1019 vento: Nord E 22.2
22 Luglio 2019 10:50 tempo osservato: Sereno Sereno 29 62 1019 vento: Nord E 18.5
22 Luglio 2019 10:20 tempo osservato: Sereno Sereno 29 58 1019 vento: Nord E 14.8
22 Luglio 2019 09:50 tempo osservato: Sereno Sereno 29 54 1019 vento: Nord E 14.8
22 Luglio 2019 09:20 tempo osservato: Sereno Sereno 29 51 1019 vento: Nord E 9.3
22 Luglio 2019 08:50 tempo osservato: Sereno Sereno 28 48 1019 vento: Nord N 5.5
22 Luglio 2019 08:20 tempo osservato: Sereno Sereno 28 42 1019 vento: Nord N 3.7
22 Luglio 2019 07:50 tempo osservato: Sereno Sereno 25 47 1019 vento: Nord N 5.5
22 Luglio 2019 07:20 tempo osservato: Sereno Sereno 23 53 1019 vento: Nord N 5.5
22 Luglio 2019 06:50 tempo osservato: Sereno Sereno 21 64 1019 vento: Nord O/SO 7.4
22 Luglio 2019 06:20 tempo osservato: Sereno Sereno 20 64 1019 vento: Nord N 5.5
22 Luglio 2019 05:50 tempo osservato: Sereno Sereno 19 68 1018 vento: Nord O 7.4
22 Luglio 2019 05:20 tempo osservato: Sereno Sereno 20 64 1018 vento: Nord O 14.8
22 Luglio 2019 04:50 tempo osservato: Sereno Sereno 19 68 1018 vento: Nord O/SO 14.8
22 Luglio 2019 04:20 tempo osservato: Sereno Sereno 20 64 1019 vento: Nord N 5.5
22 Luglio 2019 03:50 tempo osservato: Sereno Sereno 20 64 1019 vento: Nord O/SO 9.3
22 Luglio 2019 03:20 tempo osservato: Sereno Sereno 21 60 1019 vento: Nord O/SO 7.4
22 Luglio 2019 02:50 tempo osservato: Sereno Sereno 20 64 1019 vento: Nord O/SO 11.1
22 Luglio 2019 02:20 tempo osservato: Sereno Sereno 20 64 1019 vento: Nord O 11.1
22 Luglio 2019 01:50 tempo osservato: Sereno Sereno 21 56 1020 vento: Nord O 7.4
22 Luglio 2019 01:20 tempo osservato: Sereno Sereno 22 56 1020 vento: Nord O/SO 9.3
22 Luglio 2019 00:50 tempo osservato: Sereno Sereno 22 60 1020 vento: Nord O 9.3
22 Luglio 2019 00:20 tempo osservato: Sereno Sereno 22 60 1020 vento: Nord O/SO 9.3
21 Luglio 2019 23:50 tempo osservato: Sereno Sereno 24 60 1020 vento: Nord O 7.4
21 Luglio 2019 23:20 tempo osservato: Sereno Sereno 26 61 1020 vento: Nord E/NE 9.3
21 Luglio 2019 22:50 tempo osservato: Sereno Sereno 27 57 1019 vento: Nord E/NE 9.3
21 Luglio 2019 22:20 tempo osservato: Sereno Sereno 27 57 1019 vento: Nord NE 9.3
21 Luglio 2019 21:50 tempo osservato: Sereno Sereno 27 57 1019 vento: Nord NE 9.3
21 Luglio 2019 21:20 tempo osservato: Sereno Sereno 27 61 1019 vento: Nord E/NE 11.1
21 Luglio 2019 20:50 tempo osservato: Sereno Sereno 27 57 1019 vento: Nord E/NE 14.8
21 Luglio 2019 20:20 tempo osservato: Sereno Sereno 27 57 1019 vento: Nord E/NE 16.7
21 Luglio 2019 19:50 tempo osservato: Sereno Sereno 28 54 1019 vento: Nord E/NE 16.7
21 Luglio 2019 19:20 tempo osservato: Sereno Sereno 29 48 1018 vento: Nord E/NE 18.5
21 Luglio 2019 18:50 tempo osservato: Sereno Sereno 29 45 1018 vento: Nord E 18.5